sensor_id;sensor_type;location;lat;lon;timestamp;P1;durP1;ratioP1;P2;durP2;ratioP2
6475;SDS011;3271;51.910;5.840;2023-05-14T00:01:12;7.28;;;6.25;;
6475;SDS011;3271;51.910;5.840;2023-05-14T00:03:37;7.32;;;5.82;;
6475;SDS011;3271;51.910;5.840;2023-05-14T00:06:05;6.53;;;5.93;;
6475;SDS011;3271;51.910;5.840;2023-05-14T00:08:31;9.82;;;6.60;;
6475;SDS011;3271;51.910;5.840;2023-05-14T00:10:57;6.95;;;6.22;;
6475;SDS011;3271;51.910;5.840;2023-05-14T00:13:23;7.80;;;6.53;;
6475;SDS011;3271;51.910;5.840;2023-05-14T00:15:49;7.32;;;6.63;;
6475;SDS011;3271;51.910;5.840;2023-05-14T00:18:14;7.30;;;6.57;;
6475;SDS011;3271;51.910;5.840;2023-05-14T00:20:40;7.47;;;6.30;;
6475;SDS011;3271;51.910;5.840;2023-05-14T00:23:06;7.78;;;6.97;;
6475;SDS011;3271;51.910;5.840;2023-05-14T00:25:32;7.85;;;7.15;;
6475;SDS011;3271;51.910;5.840;2023-05-14T00:27:58;7.70;;;6.90;;
6475;SDS011;3271;51.910;5.840;2023-05-14T00:30:24;7.68;;;7.00;;
6475;SDS011;3271;51.910;5.840;2023-05-14T00:32:50;6.95;;;6.35;;
6475;SDS011;3271;51.910;5.840;2023-05-14T00:35:16;8.50;;;7.72;;
6475;SDS011;3271;51.910;5.840;2023-05-14T00:37:42;8.20;;;6.97;;
6475;SDS011;3271;51.910;5.840;2023-05-14T00:40:08;9.27;;;7.63;;
6475;SDS011;3271;51.910;5.840;2023-05-14T00:42:36;9.80;;;7.53;;
6475;SDS011;3271;51.910;5.840;2023-05-14T00:45:02;8.02;;;7.22;;
6475;SDS011;3271;51.910;5.840;2023-05-14T00:47:28;9.05;;;7.07;;
6475;SDS011;3271;51.910;5.840;2023-05-14T00:49:54;7.43;;;6.70;;
6475;SDS011;3271;51.910;5.840;2023-05-14T00:52:20;8.27;;;7.40;;
6475;SDS011;3271;51.910;5.840;2023-05-14T00:54:46;8.65;;;6.78;;
6475;SDS011;3271;51.910;5.840;2023-05-14T00:57:12;10.10;;;6.95;;
6475;SDS011;3271;51.910;5.840;2023-05-14T00:59:38;8.18;;;6.75;;
6475;SDS011;3271;51.910;5.840;2023-05-14T01:02:06;8.05;;;7.22;;
6475;SDS011;3271;51.910;5.840;2023-05-14T01:04:32;9.75;;;6.57;;
6475;SDS011;3271;51.910;5.840;2023-05-14T01:07:04;7.97;;;7.18;;
6475;SDS011;3271;51.910;5.840;2023-05-14T01:10:07;7.97;;;7.18;;
6475;SDS011;3271;51.910;5.840;2023-05-14T01:12:32;9.00;;;7.70;;
6475;SDS011;3271;51.910;5.840;2023-05-14T01:15:09;9.35;;;7.10;;
6475;SDS011;3271;51.910;5.840;2023-05-14T01:17:37;8.13;;;7.18;;
6475;SDS011;3271;51.910;5.840;2023-05-14T01:20:04;8.77;;;7.45;;
6475;SDS011;3271;51.910;5.840;2023-05-14T01:22:30;7.63;;;7.00;;
6475;SDS011;3271;51.910;5.840;2023-05-14T01:24:56;9.65;;;7.20;;
6475;SDS011;3271;51.910;5.840;2023-05-14T01:27:28;9.02;;;7.72;;
6475;SDS011;3271;51.910;5.840;2023-05-14T01:30:06;9.30;;;7.10;;
6475;SDS011;3271;51.910;5.840;2023-05-14T01:32:34;6.93;;;6.32;;
6475;SDS011;3271;51.910;5.840;2023-05-14T01:35:01;8.98;;;7.15;;
6475;SDS011;3271;51.910;5.840;2023-05-14T01:37:27;10.48;;;7.97;;
6475;SDS011;3271;51.910;5.840;2023-05-14T01:39:54;7.80;;;7.10;;
6475;SDS011;3271;51.910;5.840;2023-05-14T01:42:21;8.38;;;7.43;;
6475;SDS011;3271;51.910;5.840;2023-05-14T01:44:47;8.45;;;7.55;;
6475;SDS011;3271;51.910;5.840;2023-05-14T01:47:13;9.75;;;7.45;;
6475;SDS011;3271;51.910;5.840;2023-05-14T01:49:39;10.50;;;7.28;;
6475;SDS011;3271;51.910;5.840;2023-05-14T01:52:05;8.98;;;7.00;;
6475;SDS011;3271;51.910;5.840;2023-05-14T01:54:32;9.40;;;7.30;;
6475;SDS011;3271;51.910;5.840;2023-05-14T01:56:58;7.70;;;7.00;;
6475;SDS011;3271;51.910;5.840;2023-05-14T01:59:24;8.90;;;6.95;;
6475;SDS011;3271;51.910;5.840;2023-05-14T02:01:50;7.97;;;7.18;;
6475;SDS011;3271;51.910;5.840;2023-05-14T02:04:16;7.90;;;7.07;;
6475;SDS011;3271;51.910;5.840;2023-05-14T02:06:42;7.80;;;6.97;;
6475;SDS011;3271;51.910;5.840;2023-05-14T02:09:08;8.90;;;7.40;;
6475;SDS011;3271;51.910;5.840;2023-05-14T02:11:34;8.32;;;7.25;;
6475;SDS011;3271;51.910;5.840;2023-05-14T02:14:00;8.57;;;7.57;;
6475;SDS011;3271;51.910;5.840;2023-05-14T02:16:26;8.52;;;6.88;;
6475;SDS011;3271;51.910;5.840;2023-05-14T02:18:51;8.82;;;7.90;;
6475;SDS011;3271;51.910;5.840;2023-05-14T02:21:17;8.27;;;7.22;;
6475;SDS011;3271;51.910;5.840;2023-05-14T02:23:43;7.78;;;6.88;;
6475;SDS011;3271;51.910;5.840;2023-05-14T02:26:09;10.88;;;7.15;;
6475;SDS011;3271;51.910;5.840;2023-05-14T02:28:36;8.48;;;7.78;;
6475;SDS011;3271;51.910;5.840;2023-05-14T02:31:02;9.77;;;7.88;;
6475;SDS011;3271;51.910;5.840;2023-05-14T02:33:28;8.68;;;7.47;;
6475;SDS011;3271;51.910;5.840;2023-05-14T02:35:54;10.38;;;7.45;;
6475;SDS011;3271;51.910;5.840;2023-05-14T02:38:19;7.90;;;7.20;;
6475;SDS011;3271;51.910;5.840;2023-05-14T02:40:45;8.70;;;7.80;;
6475;SDS011;3271;51.910;5.840;2023-05-14T02:43:11;8.20;;;7.40;;
6475;SDS011;3271;51.910;5.840;2023-05-14T02:45:37;8.63;;;7.88;;
6475;SDS011;3271;51.910;5.840;2023-05-14T02:48:03;8.93;;;8.02;;
6475;SDS011;3271;51.910;5.840;2023-05-14T02:50:29;8.07;;;7.20;;
6475;SDS011;3271;51.910;5.840;2023-05-14T02:52:55;8.63;;;7.72;;
6475;SDS011;3271;51.910;5.840;2023-05-14T02:55:21;8.75;;;8.02;;
6475;SDS011;3271;51.910;5.840;2023-05-14T02:57:47;9.05;;;8.18;;
6475;SDS011;3271;51.910;5.840;2023-05-14T03:00:13;9.23;;;7.72;;
6475;SDS011;3271;51.910;5.840;2023-05-14T03:02:39;12.75;;;8.50;;
6475;SDS011;3271;51.910;5.840;2023-05-14T03:05:07;9.85;;;8.85;;
6475;SDS011;3271;51.910;5.840;2023-05-14T03:07:33;9.77;;;8.88;;
6475;SDS011;3271;51.910;5.840;2023-05-14T03:09:59;8.63;;;7.80;;
6475;SDS011;3271;51.910;5.840;2023-05-14T03:12:25;9.52;;;7.85;;
6475;SDS011;3271;51.910;5.840;2023-05-14T03:14:51;8.60;;;7.80;;
6475;SDS011;3271;51.910;5.840;2023-05-14T03:17:17;9.38;;;7.15;;
6475;SDS011;3271;51.910;5.840;2023-05-14T03:19:43;10.13;;;7.72;;
6475;SDS011;3271;51.910;5.840;2023-05-14T03:22:08;9.43;;;8.50;;
6475;SDS011;3271;51.910;5.840;2023-05-14T03:24:36;9.45;;;8.52;;
6475;SDS011;3271;51.910;5.840;2023-05-14T03:27:02;9.52;;;8.52;;
6475;SDS011;3271;51.910;5.840;2023-05-14T03:29:28;7.75;;;7.13;;
6475;SDS011;3271;51.910;5.840;2023-05-14T03:31:54;10.65;;;8.50;;
6475;SDS011;3271;51.910;5.840;2023-05-14T03:34:20;9.23;;;8.20;;
6475;SDS011;3271;51.910;5.840;2023-05-14T03:36:46;8.73;;;7.60;;
6475;SDS011;3271;51.910;5.840;2023-05-14T03:39:12;11.20;;;8.07;;
6475;SDS011;3271;51.910;5.840;2023-05-14T03:41:43;9.63;;;8.60;;
6475;SDS011;3271;51.910;5.840;2023-05-14T03:44:09;9.32;;;7.90;;
6475;SDS011;3271;51.910;5.840;2023-05-14T03:46:35;9.32;;;8.43;;
6475;SDS011;3271;51.910;5.840;2023-05-14T03:49:02;11.55;;;8.52;;
6475;SDS011;3271;51.910;5.840;2023-05-14T03:51:27;9.68;;;7.93;;
6475;SDS011;3271;51.910;5.840;2023-05-14T03:53:53;9.23;;;8.43;;
6475;SDS011;3271;51.910;5.840;2023-05-14T03:56:19;9.07;;;8.18;;
6475;SDS011;3271;51.910;5.840;2023-05-14T03:58:46;9.82;;;8.75;;
6475;SDS011;3271;51.910;5.840;2023-05-14T04:01:12;8.65;;;7.63;;
6475;SDS011;3271;51.910;5.840;2023-05-14T04:03:38;9.50;;;7.93;;
6475;SDS011;3271;51.910;5.840;2023-05-14T04:06:04;9.05;;;8.10;;
6475;SDS011;3271;51.910;5.840;2023-05-14T04:08:30;10.13;;;8.63;;
6475;SDS011;3271;51.910;5.840;2023-05-14T04:10:56;11.38;;;8.80;;
6475;SDS011;3271;51.910;5.840;2023-05-14T04:13:22;10.90;;;9.02;;
6475;SDS011;3271;51.910;5.840;2023-05-14T04:15:48;9.63;;;8.60;;
6475;SDS011;3271;51.910;5.840;2023-05-14T04:18:13;9.65;;;8.75;;
6475;SDS011;3271;51.910;5.840;2023-05-14T04:20:41;10.95;;;9.15;;
6475;SDS011;3271;51.910;5.840;2023-05-14T04:23:06;9.70;;;8.57;;
6475;SDS011;3271;51.910;5.840;2023-05-14T04:25:32;9.63;;;8.32;;
6475;SDS011;3271;51.910;5.840;2023-05-14T04:27:58;9.68;;;8.32;;
6475;SDS011;3271;51.910;5.840;2023-05-14T04:30:24;8.35;;;7.63;;
6475;SDS011;3271;51.910;5.840;2023-05-14T04:32:50;9.30;;;8.40;;
6475;SDS011;3271;51.910;5.840;2023-05-14T04:35:16;8.93;;;7.97;;
6475;SDS011;3271;51.910;5.840;2023-05-14T04:37:44;9.18;;;8.07;;
6475;SDS011;3271;51.910;5.840;2023-05-14T04:40:10;9.60;;;8.48;;
6475;SDS011;3271;51.910;5.840;2023-05-14T04:42:36;9.32;;;8.43;;
6475;SDS011;3271;51.910;5.840;2023-05-14T04:45:02;11.40;;;8.57;;
6475;SDS011;3271;51.910;5.840;2023-05-14T04:47:29;10.18;;;9.13;;
6475;SDS011;3271;51.910;5.840;2023-05-14T04:49:55;9.98;;;8.43;;
6475;SDS011;3271;51.910;5.840;2023-05-14T04:52:22;9.75;;;8.75;;
6475;SDS011;3271;51.910;5.840;2023-05-14T04:54:48;9.90;;;8.90;;
6475;SDS011;3271;51.910;5.840;2023-05-14T04:57:14;11.23;;;9.48;;
6475;SDS011;3271;51.910;5.840;2023-05-14T04:59:40;11.52;;;9.18;;
6475;SDS011;3271;51.910;5.840;2023-05-14T05:02:06;9.43;;;8.60;;
6475;SDS011;3271;51.910;5.840;2023-05-14T05:04:32;11.40;;;9.35;;
6475;SDS011;3271;51.910;5.840;2023-05-14T05:06:57;9.82;;;8.93;;
6475;SDS011;3271;51.910;5.840;2023-05-14T05:09:23;12.07;;;10.13;;
6475;SDS011;3271;51.910;5.840;2023-05-14T05:11:49;10.10;;;8.35;;
6475;SDS011;3271;51.910;5.840;2023-05-14T05:14:15;9.18;;;8.27;;
6475;SDS011;3271;51.910;5.840;2023-05-14T05:16:42;9.77;;;8.35;;
6475;SDS011;3271;51.910;5.840;2023-05-14T05:19:08;10.73;;;8.48;;
6475;SDS011;3271;51.910;5.840;2023-05-14T05:21:34;9.25;;;8.35;;
6475;SDS011;3271;51.910;5.840;2023-05-14T05:24:00;10.80;;;9.50;;
6475;SDS011;3271;51.910;5.840;2023-05-14T05:26:26;9.10;;;8.20;;
6475;SDS011;3271;51.910;5.840;2023-05-14T05:28:52;10.23;;;8.93;;
6475;SDS011;3271;51.910;5.840;2023-05-14T05:31:18;10.35;;;9.32;;
6475;SDS011;3271;51.910;5.840;2023-05-14T05:33:44;12.35;;;9.10;;
6475;SDS011;3271;51.910;5.840;2023-05-14T05:36:10;8.52;;;7.53;;
6475;SDS011;3271;51.910;5.840;2023-05-14T05:38:36;10.63;;;8.93;;
6475;SDS011;3271;51.910;5.840;2023-05-14T05:41:02;10.57;;;8.60;;
6475;SDS011;3271;51.910;5.840;2023-05-14T05:43:28;9.48;;;7.97;;
6475;SDS011;3271;51.910;5.840;2023-05-14T05:45:54;10.75;;;8.93;;
6475;SDS011;3271;51.910;5.840;2023-05-14T05:48:20;9.85;;;8.00;;
6475;SDS011;3271;51.910;5.840;2023-05-14T05:50:46;8.57;;;7.72;;
6475;SDS011;3271;51.910;5.840;2023-05-14T05:53:13;10.98;;;9.65;;
6475;SDS011;3271;51.910;5.840;2023-05-14T05:55:40;12.27;;;8.40;;
6475;SDS011;3271;51.910;5.840;2023-05-14T05:58:06;9.63;;;8.63;;
6475;SDS011;3271;51.910;5.840;2023-05-14T06:00:32;11.82;;;8.48;;
6475;SDS011;3271;51.910;5.840;2023-05-14T06:02:59;10.27;;;8.32;;
6475;SDS011;3271;51.910;5.840;2023-05-14T06:05:24;11.65;;;8.98;;
6475;SDS011;3271;51.910;5.840;2023-05-14T06:07:51;9.40;;;8.45;;
6475;SDS011;3271;51.910;5.840;2023-05-14T06:10:17;9.45;;;8.02;;
6475;SDS011;3271;51.910;5.840;2023-05-14T06:12:43;11.23;;;8.80;;
6475;SDS011;3271;51.910;5.840;2023-05-14T06:15:09;12.20;;;9.88;;
6475;SDS011;3271;51.910;5.840;2023-05-14T06:17:36;13.48;;;9.55;;
6475;SDS011;3271;51.910;5.840;2023-05-14T06:20:02;11.07;;;8.70;;
6475;SDS011;3271;51.910;5.840;2023-05-14T06:22:35;10.35;;;9.18;;
6475;SDS011;3271;51.910;5.840;2023-05-14T06:25:01;9.73;;;8.73;;
6475;SDS011;3271;51.910;5.840;2023-05-14T06:27:27;9.38;;;8.48;;
6475;SDS011;3271;51.910;5.840;2023-05-14T06:29:53;11.02;;;9.35;;
6475;SDS011;3271;51.910;5.840;2023-05-14T06:32:19;10.75;;;8.70;;
6475;SDS011;3271;51.910;5.840;2023-05-14T06:34:45;9.15;;;8.35;;
6475;SDS011;3271;51.910;5.840;2023-05-14T06:37:11;9.90;;;8.98;;
6475;SDS011;3271;51.910;5.840;2023-05-14T06:39:37;10.32;;;8.23;;
6475;SDS011;3271;51.910;5.840;2023-05-14T06:42:03;13.20;;;10.52;;
6475;SDS011;3271;51.910;5.840;2023-05-14T06:44:30;12.77;;;9.60;;
6475;SDS011;3271;51.910;5.840;2023-05-14T06:46:56;10.77;;;8.73;;
6475;SDS011;3271;51.910;5.840;2023-05-14T06:49:22;10.18;;;9.18;;
6475;SDS011;3271;51.910;5.840;2023-05-14T06:51:48;10.70;;;9.02;;
6475;SDS011;3271;51.910;5.840;2023-05-14T06:54:14;10.25;;;9.25;;
6475;SDS011;3271;51.910;5.840;2023-05-14T06:56:40;10.13;;;8.00;;
6475;SDS011;3271;51.910;5.840;2023-05-14T06:59:06;9.95;;;8.10;;
6475;SDS011;3271;51.910;5.840;2023-05-14T07:01:31;12.27;;;8.40;;
6475;SDS011;3271;51.910;5.840;2023-05-14T07:03:57;9.93;;;9.00;;
6475;SDS011;3271;51.910;5.840;2023-05-14T07:06:23;11.43;;;8.35;;
6475;SDS011;3271;51.910;5.840;2023-05-14T07:08:49;11.68;;;9.93;;
6475;SDS011;3271;51.910;5.840;2023-05-14T07:11:15;10.93;;;9.80;;
6475;SDS011;3271;51.910;5.840;2023-05-14T07:13:41;13.93;;;12.45;;
6475;SDS011;3271;51.910;5.840;2023-05-14T07:16:07;49.92;;;37.30;;
6475;SDS011;3271;51.910;5.840;2023-05-14T07:18:36;48.03;;;39.47;;
6475;SDS011;3271;51.910;5.840;2023-05-14T07:21:02;14.95;;;13.40;;
6475;SDS011;3271;51.910;5.840;2023-05-14T07:23:30;10.50;;;8.88;;
6475;SDS011;3271;51.910;5.840;2023-05-14T07:25:56;11.02;;;8.68;;
6475;SDS011;3271;51.910;5.840;2023-05-14T07:28:22;9.80;;;8.90;;
6475;SDS011;3271;51.910;5.840;2023-05-14T07:30:48;10.45;;;9.13;;
6475;SDS011;3271;51.910;5.840;2023-05-14T07:33:13;10.57;;;8.63;;
6475;SDS011;3271;51.910;5.840;2023-05-14T07:35:39;8.70;;;7.80;;
6475;SDS011;3271;51.910;5.840;2023-05-14T07:38:06;9.32;;;8.30;;
6475;SDS011;3271;51.910;5.840;2023-05-14T07:40:32;11.10;;;8.13;;
6475;SDS011;3271;51.910;5.840;2023-05-14T07:42:58;10.95;;;7.60;;
6475;SDS011;3271;51.910;5.840;2023-05-14T07:45:24;11.68;;;8.55;;
6475;SDS011;3271;51.910;5.840;2023-05-14T07:47:49;9.32;;;8.43;;
6475;SDS011;3271;51.910;5.840;2023-05-14T07:50:16;11.73;;;8.70;;
6475;SDS011;3271;51.910;5.840;2023-05-14T07:52:42;8.18;;;7.30;;
6475;SDS011;3271;51.910;5.840;2023-05-14T07:55:08;8.85;;;7.95;;
6475;SDS011;3271;51.910;5.840;2023-05-14T07:57:34;9.70;;;7.78;;
6475;SDS011;3271;51.910;5.840;2023-05-14T08:00:01;10.68;;;8.35;;
6475;SDS011;3271;51.910;5.840;2023-05-14T08:02:27;9.27;;;7.60;;
6475;SDS011;3271;51.910;5.840;2023-05-14T08:04:53;9.10;;;7.65;;
6475;SDS011;3271;51.910;5.840;2023-05-14T08:07:19;8.23;;;7.32;;
6475;SDS011;3271;51.910;5.840;2023-05-14T08:09:45;9.02;;;7.22;;
6475;SDS011;3271;51.910;5.840;2023-05-14T08:12:11;8.13;;;7.43;;
6475;SDS011;3271;51.910;5.840;2023-05-14T08:14:37;7.75;;;6.72;;
6475;SDS011;3271;51.910;5.840;2023-05-14T08:17:03;8.77;;;7.70;;
6475;SDS011;3271;51.910;5.840;2023-05-14T08:19:29;11.82;;;8.00;;
6475;SDS011;3271;51.910;5.840;2023-05-14T08:21:55;10.85;;;8.55;;
6475;SDS011;3271;51.910;5.840;2023-05-14T08:24:21;9.02;;;8.07;;
6475;SDS011;3271;51.910;5.840;2023-05-14T08:26:47;8.63;;;7.82;;
6475;SDS011;3271;51.910;5.840;2023-05-14T08:29:13;7.95;;;7.13;;
6475;SDS011;3271;51.910;5.840;2023-05-14T08:31:39;9.18;;;6.75;;
6475;SDS011;3271;51.910;5.840;2023-05-14T08:34:05;7.82;;;7.00;;
6475;SDS011;3271;51.910;5.840;2023-05-14T08:36:31;8.05;;;7.28;;
6475;SDS011;3271;51.910;5.840;2023-05-14T08:38:57;8.20;;;7.18;;
6475;SDS011;3271;51.910;5.840;2023-05-14T08:41:23;8.88;;;7.97;;
6475;SDS011;3271;51.910;5.840;2023-05-14T08:43:54;8.32;;;6.45;;
6475;SDS011;3271;51.910;5.840;2023-05-14T08:46:22;9.00;;;6.45;;
6475;SDS011;3271;51.910;5.840;2023-05-14T08:49:00;8.45;;;7.15;;
6475;SDS011;3271;51.910;5.840;2023-05-14T08:51:29;7.07;;;6.47;;
6475;SDS011;3271;51.910;5.840;2023-05-14T08:53:55;9.27;;;8.10;;
6475;SDS011;3271;51.910;5.840;2023-05-14T08:56:23;7.45;;;6.75;;
6475;SDS011;3271;51.910;5.840;2023-05-14T08:58:49;6.65;;;6.05;;
6475;SDS011;3271;51.910;5.840;2023-05-14T09:01:15;7.22;;;6.30;;
6475;SDS011;3271;51.910;5.840;2023-05-14T09:03:41;7.22;;;5.53;;
6475;SDS011;3271;51.910;5.840;2023-05-14T09:06:08;8.50;;;6.68;;
6475;SDS011;3271;51.910;5.840;2023-05-14T09:08:35;6.65;;;5.70;;
6475;SDS011;3271;51.910;5.840;2023-05-14T09:11:02;7.22;;;5.97;;
6475;SDS011;3271;51.910;5.840;2023-05-14T09:13:28;7.43;;;6.22;;
6475;SDS011;3271;51.910;5.840;2023-05-14T09:15:55;7.95;;;5.63;;
6475;SDS011;3271;51.910;5.840;2023-05-14T09:18:21;6.10;;;5.60;;
6475;SDS011;3271;51.910;5.840;2023-05-14T09:20:47;6.10;;;5.50;;
6475;SDS011;3271;51.910;5.840;2023-05-14T09:23:13;6.88;;;6.18;;
6475;SDS011;3271;51.910;5.840;2023-05-14T09:25:39;5.93;;;5.32;;
6475;SDS011;3271;51.910;5.840;2023-05-14T09:28:05;5.40;;;4.85;;
6475;SDS011;3271;51.910;5.840;2023-05-14T09:30:33;5.95;;;5.30;;
6475;SDS011;3271;51.910;5.840;2023-05-14T09:33:00;9.90;;;5.40;;
6475;SDS011;3271;51.910;5.840;2023-05-14T09:35:28;5.90;;;5.30;;
6475;SDS011;3271;51.910;5.840;2023-05-14T09:37:54;7.78;;;4.82;;
6475;SDS011;3271;51.910;5.840;2023-05-14T09:40:20;6.47;;;5.03;;
6475;SDS011;3271;51.910;5.840;2023-05-14T09:42:47;5.72;;;4.90;;
6475;SDS011;3271;51.910;5.840;2023-05-14T09:45:13;8.60;;;5.53;;
6475;SDS011;3271;51.910;5.840;2023-05-14T09:47:39;5.78;;;5.28;;
6475;SDS011;3271;51.910;5.840;2023-05-14T09:50:06;5.45;;;4.95;;
6475;SDS011;3271;51.910;5.840;2023-05-14T09:52:32;6.53;;;5.03;;
6475;SDS011;3271;51.910;5.840;2023-05-14T09:54:58;5.28;;;4.50;;
6475;SDS011;3271;51.910;5.840;2023-05-14T09:57:24;7.78;;;5.28;;
6475;SDS011;3271;51.910;5.840;2023-05-14T09:59:51;5.60;;;5.00;;
6475;SDS011;3271;51.910;5.840;2023-05-14T10:04:47;5.65;;;5.20;;
6475;SDS011;3271;51.910;5.840;2023-05-14T10:07:13;5.30;;;4.80;;
6475;SDS011;3271;51.910;5.840;2023-05-14T10:09:40;4.90;;;4.40;;
6475;SDS011;3271;51.910;5.840;2023-05-14T10:12:07;4.63;;;4.20;;
6475;SDS011;3271;51.910;5.840;2023-05-14T10:14:45;6.60;;;4.80;;
6475;SDS011;3271;51.910;5.840;2023-05-14T10:17:17;5.38;;;4.88;;
6475;SDS011;3271;51.910;5.840;2023-05-14T10:19:49;6.88;;;6.18;;
6475;SDS011;3271;51.910;5.840;2023-05-14T10:22:18;8.20;;;7.28;;
6475;SDS011;3271;51.910;5.840;2023-05-14T10:24:46;7.40;;;6.70;;
6475;SDS011;3271;51.910;5.840;2023-05-14T10:27:16;9.45;;;6.57;;
6475;SDS011;3271;51.910;5.840;2023-05-14T10:29:42;6.97;;;6.30;;
6475;SDS011;3271;51.910;5.840;2023-05-14T10:32:12;6.30;;;5.43;;
6475;SDS011;3271;51.910;5.840;2023-05-14T10:34:41;7.05;;;5.75;;
6475;SDS011;3271;51.910;5.840;2023-05-14T10:37:11;5.35;;;4.90;;
6475;SDS011;3271;51.910;5.840;2023-05-14T10:39:45;8.90;;;6.45;;
6475;SDS011;3271;51.910;5.840;2023-05-14T10:42:12;8.10;;;5.63;;
6475;SDS011;3271;51.910;5.840;2023-05-14T10:44:40;8.75;;;6.18;;
6475;SDS011;3271;51.910;5.840;2023-05-14T10:47:07;6.88;;;6.18;;
6475;SDS011;3271;51.910;5.840;2023-05-14T10:49:33;9.90;;;6.47;;
6475;SDS011;3271;51.910;5.840;2023-05-14T10:51:59;8.60;;;6.10;;
6475;SDS011;3271;51.910;5.840;2023-05-14T10:54:26;7.00;;;6.28;;
6475;SDS011;3271;51.910;5.840;2023-05-14T10:56:52;7.35;;;5.85;;
6475;SDS011;3271;51.910;5.840;2023-05-14T10:59:18;6.78;;;5.28;;
6475;SDS011;3271;51.910;5.840;2023-05-14T11:01:44;8.82;;;6.40;;
6475;SDS011;3271;51.910;5.840;2023-05-14T11:04:17;7.95;;;6.97;;
6475;SDS011;3271;51.910;5.840;2023-05-14T11:06:43;7.93;;;7.10;;
6475;SDS011;3271;51.910;5.840;2023-05-14T11:09:10;7.28;;;6.57;;
6475;SDS011;3271;51.910;5.840;2023-05-14T11:11:37;7.47;;;6.30;;
6475;SDS011;3271;51.910;5.840;2023-05-14T11:14:03;7.72;;;6.78;;
6475;SDS011;3271;51.910;5.840;2023-05-14T11:16:29;6.95;;;5.82;;
6475;SDS011;3271;51.910;5.840;2023-05-14T11:19:02;7.63;;;5.80;;
6475;SDS011;3271;51.910;5.840;2023-05-14T11:21:28;7.30;;;6.70;;
6475;SDS011;3271;51.910;5.840;2023-05-14T11:23:56;8.18;;;6.50;;
6475;SDS011;3271;51.910;5.840;2023-05-14T11:26:22;8.63;;;7.53;;
6475;SDS011;3271;51.910;5.840;2023-05-14T11:28:48;8.55;;;7.68;;
6475;SDS011;3271;51.910;5.840;2023-05-14T11:31:14;10.90;;;7.20;;
6475;SDS011;3271;51.910;5.840;2023-05-14T11:33:40;8.05;;;7.15;;
6475;SDS011;3271;51.910;5.840;2023-05-14T11:36:06;8.48;;;6.70;;
6475;SDS011;3271;51.910;5.840;2023-05-14T11:38:34;9.63;;;7.78;;
6475;SDS011;3271;51.910;5.840;2023-05-14T11:41:12;7.57;;;6.78;;
6475;SDS011;3271;51.910;5.840;2023-05-14T11:43:39;10.25;;;7.15;;
6475;SDS011;3271;51.910;5.840;2023-05-14T11:46:05;8.50;;;7.07;;
6475;SDS011;3271;51.910;5.840;2023-05-14T11:48:31;8.85;;;7.90;;
6475;SDS011;3271;51.910;5.840;2023-05-14T11:50:58;8.70;;;7.75;;
6475;SDS011;3271;51.910;5.840;2023-05-14T11:53:24;8.23;;;7.38;;
6475;SDS011;3271;51.910;5.840;2023-05-14T11:55:51;12.30;;;7.97;;
6475;SDS011;3271;51.910;5.840;2023-05-14T11:58:18;14.75;;;8.57;;
6475;SDS011;3271;51.910;5.840;2023-05-14T12:00:44;8.90;;;8.00;;
6475;SDS011;3271;51.910;5.840;2023-05-14T12:03:10;8.90;;;6.90;;
6475;SDS011;3271;51.910;5.840;2023-05-14T12:05:37;8.10;;;7.28;;
6475;SDS011;3271;51.910;5.840;2023-05-14T12:08:18;8.75;;;7.38;;
6475;SDS011;3271;51.910;5.840;2023-05-14T12:10:44;9.07;;;7.95;;
6475;SDS011;3271;51.910;5.840;2023-05-14T12:13:10;8.68;;;6.57;;
6475;SDS011;3271;51.910;5.840;2023-05-14T12:15:39;7.63;;;5.85;;
6475;SDS011;3271;51.910;5.840;2023-05-14T12:18:07;8.63;;;6.60;;
6475;SDS011;3271;51.910;5.840;2023-05-14T12:20:33;28.95;;;25.65;;
6475;SDS011;3271;51.910;5.840;2023-05-14T12:22:59;9.65;;;7.65;;
6475;SDS011;3271;51.910;5.840;2023-05-14T12:25:26;7.55;;;6.72;;
6475;SDS011;3271;51.910;5.840;2023-05-14T12:27:52;6.57;;;5.93;;
6475;SDS011;3271;51.910;5.840;2023-05-14T12:30:18;8.70;;;6.25;;
6475;SDS011;3271;51.910;5.840;2023-05-14T12:32:44;8.68;;;6.65;;
6475;SDS011;3271;51.910;5.840;2023-05-14T12:35:09;6.88;;;6.18;;
6475;SDS011;3271;51.910;5.840;2023-05-14T12:37:35;6.22;;;5.60;;
6475;SDS011;3271;51.910;5.840;2023-05-14T12:40:03;7.75;;;6.97;;
6475;SDS011;3271;51.910;5.840;2023-05-14T12:42:35;6.68;;;5.50;;
6475;SDS011;3271;51.910;5.840;2023-05-14T12:45:02;6.97;;;6.35;;
6475;SDS011;3271;51.910;5.840;2023-05-14T12:47:31;7.30;;;5.40;;
6475;SDS011;3271;51.910;5.840;2023-05-14T12:49:57;6.85;;;5.47;;
6475;SDS011;3271;51.910;5.840;2023-05-14T12:52:23;9.82;;;6.35;;
6475;SDS011;3271;51.910;5.840;2023-05-14T12:54:49;7.32;;;6.30;;
6475;SDS011;3271;51.910;5.840;2023-05-14T12:57:15;5.90;;;5.30;;
6475;SDS011;3271;51.910;5.840;2023-05-14T12:59:41;6.32;;;5.55;;
6475;SDS011;3271;51.910;5.840;2023-05-14T13:02:07;5.20;;;4.80;;
6475;SDS011;3271;51.910;5.840;2023-05-14T13:04:33;6.32;;;4.60;;
6475;SDS011;3271;51.910;5.840;2023-05-14T13:06:59;6.70;;;4.63;;
6475;SDS011;3271;51.910;5.840;2023-05-14T13:09:25;6.15;;;4.82;;
6475;SDS011;3271;51.910;5.840;2023-05-14T13:11:52;5.22;;;4.72;;
6475;SDS011;3271;51.910;5.840;2023-05-14T13:14:17;6.70;;;4.60;;
6475;SDS011;3271;51.910;5.840;2023-05-14T13:16:43;6.88;;;4.88;;
6475;SDS011;3271;51.910;5.840;2023-05-14T13:19:09;5.07;;;4.65;;
6475;SDS011;3271;51.910;5.840;2023-05-14T13:21:35;6.07;;;4.95;;
6475;SDS011;3271;51.910;5.840;2023-05-14T13:24:01;6.22;;;4.60;;
6475;SDS011;3271;51.910;5.840;2023-05-14T13:26:27;6.10;;;4.80;;
6475;SDS011;3271;51.910;5.840;2023-05-14T13:28:53;6.47;;;4.88;;
6475;SDS011;3271;51.910;5.840;2023-05-14T13:31:19;6.38;;;4.35;;
6475;SDS011;3271;51.910;5.840;2023-05-14T13:33:45;6.53;;;4.13;;
6475;SDS011;3271;51.910;5.840;2023-05-14T13:36:11;4.68;;;4.07;;
6475;SDS011;3271;51.910;5.840;2023-05-14T13:38:37;5.90;;;4.43;;
6475;SDS011;3271;51.910;5.840;2023-05-14T13:41:04;4.90;;;4.20;;
6475;SDS011;3271;51.910;5.840;2023-05-14T13:43:30;4.20;;;3.70;;
6475;SDS011;3271;51.910;5.840;2023-05-14T13:45:56;4.20;;;3.80;;
6475;SDS011;3271;51.910;5.840;2023-05-14T13:48:23;5.25;;;3.97;;
6475;SDS011;3271;51.910;5.840;2023-05-14T13:50:49;8.05;;;3.85;;
6475;SDS011;3271;51.910;5.840;2023-05-14T13:53:16;5.85;;;4.25;;
6475;SDS011;3271;51.910;5.840;2023-05-14T13:55:42;4.10;;;3.78;;
6475;SDS011;3271;51.910;5.840;2023-05-14T13:58:08;4.35;;;3.50;;
6475;SDS011;3271;51.910;5.840;2023-05-14T14:00:34;7.75;;;4.70;;
6475;SDS011;3271;51.910;5.840;2023-05-14T14:03:00;6.80;;;5.13;;
6475;SDS011;3271;51.910;5.840;2023-05-14T14:05:27;4.60;;;4.20;;
6475;SDS011;3271;51.910;5.840;2023-05-14T14:07:53;6.18;;;4.15;;
6475;SDS011;3271;51.910;5.840;2023-05-14T14:10:20;7.45;;;4.28;;
6475;SDS011;3271;51.910;5.840;2023-05-14T14:12:46;4.88;;;4.38;;
6475;SDS011;3271;51.910;5.840;2023-05-14T14:15:12;4.25;;;3.85;;
6475;SDS011;3271;51.910;5.840;2023-05-14T14:17:38;6.07;;;4.30;;
6475;SDS011;3271;51.910;5.840;2023-05-14T14:20:06;4.88;;;3.95;;
6475;SDS011;3271;51.910;5.840;2023-05-14T14:22:32;5.05;;;4.13;;
6475;SDS011;3271;51.910;5.840;2023-05-14T14:24:58;4.32;;;3.92;;
6475;SDS011;3271;51.910;5.840;2023-05-14T14:27:24;4.80;;;4.50;;
6475;SDS011;3271;51.910;5.840;2023-05-14T14:29:50;4.78;;;4.20;;
6475;SDS011;3271;51.910;5.840;2023-05-14T14:32:16;9.63;;;4.55;;
6475;SDS011;3271;51.910;5.840;2023-05-14T14:34:42;5.18;;;4.78;;
6475;SDS011;3271;51.910;5.840;2023-05-14T14:37:07;4.32;;;4.03;;
6475;SDS011;3271;51.910;5.840;2023-05-14T14:39:33;5.50;;;4.63;;
6475;SDS011;3271;51.910;5.840;2023-05-14T14:41:59;5.13;;;4.28;;
6475;SDS011;3271;51.910;5.840;2023-05-14T14:44:25;7.53;;;5.00;;
6475;SDS011;3271;51.910;5.840;2023-05-14T14:46:51;4.78;;;4.38;;
6475;SDS011;3271;51.910;5.840;2023-05-14T14:49:17;6.45;;;4.15;;
6475;SDS011;3271;51.910;5.840;2023-05-14T14:51:43;5.97;;;3.95;;
6475;SDS011;3271;51.910;5.840;2023-05-14T14:54:10;5.10;;;4.55;;
6475;SDS011;3271;51.910;5.840;2023-05-14T14:56:36;4.55;;;4.15;;
6475;SDS011;3271;51.910;5.840;2023-05-14T14:59:03;5.00;;;4.60;;
6475;SDS011;3271;51.910;5.840;2023-05-14T15:01:29;4.68;;;4.28;;
6475;SDS011;3271;51.910;5.840;2023-05-14T15:03:55;6.45;;;4.43;;
6475;SDS011;3271;51.910;5.840;2023-05-14T15:06:20;5.15;;;4.65;;
6475;SDS011;3271;51.910;5.840;2023-05-14T15:08:46;5.05;;;4.43;;
6475;SDS011;3271;51.910;5.840;2023-05-14T15:11:13;5.85;;;4.55;;